createdAt,value
2023-01-31T00:03:45.281Z,25.70
2023-01-31T00:08:07.226Z,20.17
2023-01-31T00:12:29.323Z,20.58
2023-01-31T00:16:52.324Z,27.77
2023-01-31T00:21:16.822Z,22.83
2023-01-31T00:25:39.059Z,17.65
2023-01-31T00:30:01.289Z,20.90
2023-01-31T00:34:23.306Z,18.50
2023-01-31T00:38:45.766Z,22.10
2023-01-31T00:43:07.695Z,17.67
2023-01-31T00:47:29.858Z,16.50
2023-01-31T00:51:51.782Z,22.20
2023-01-31T00:56:18.393Z,18.42
2023-01-31T01:00:40.613Z,15.43
2023-01-31T01:05:02.920Z,15.65
2023-01-31T01:09:25.692Z,17.63
2023-01-31T01:13:48.524Z,15.88
2023-01-31T01:18:10.890Z,22.67
2023-01-31T01:22:34.885Z,15.68
2023-01-31T01:26:57.464Z,18.60
2023-01-31T01:31:21.169Z,24.77
2023-01-31T01:35:43.427Z,20.45
2023-01-31T01:40:06.268Z,21.52
2023-01-31T01:44:53.363Z,17.92
2023-01-31T01:49:31.237Z,15.95
2023-01-31T01:53:57.513Z,17.42
2023-01-31T01:58:40.105Z,21.02
2023-01-31T02:03:08.171Z,21.08
2023-01-31T02:07:30.928Z,19.58
2023-01-31T02:11:52.826Z,18.00
2023-01-31T02:16:16.994Z,15.50
2023-01-31T02:21:17.639Z,19.80
2023-01-31T02:26:03.485Z,18.50
2023-01-31T02:30:51.192Z,16.88
2023-01-31T02:35:34.655Z,18.90
2023-01-31T02:40:15.353Z,23.83
2023-01-31T02:45:25.584Z,16.10
2023-01-31T02:49:59.287Z,12.15
2023-01-31T02:54:45.703Z,18.02
2023-01-31T02:59:32.171Z,17.88
2023-01-31T03:04:06.439Z,21.13
2023-01-31T03:08:29.394Z,21.42
2023-01-31T03:13:25.789Z,14.55
2023-01-31T03:18:10.422Z,16.27
2023-01-31T03:22:41.076Z,23.80
2023-01-31T03:27:05.029Z,21.88
2023-01-31T03:31:42.910Z,25.33
2023-01-31T03:36:23.731Z,25.98
2023-01-31T03:41:23.027Z,23.88
2023-01-31T03:46:03.744Z,24.08
2023-01-31T03:50:34.926Z,18.08
2023-01-31T03:55:16.147Z,19.48
2023-01-31T03:59:40.909Z,25.00
2023-01-31T04:04:14.986Z,19.55
2023-01-31T04:08:38.326Z,16.92
2023-01-31T04:13:03.625Z,24.58
2023-01-31T04:17:25.567Z,18.85
2023-01-31T04:21:47.762Z,18.38
2023-01-31T04:26:10.026Z,16.92
2023-01-31T04:30:32.148Z,18.38
2023-01-31T04:34:54.150Z,18.30
2023-01-31T04:39:16.628Z,20.75
2023-01-31T04:43:38.602Z,17.90
2023-01-31T04:48:00.416Z,15.98
2023-01-31T04:52:24.525Z,12.43
2023-01-31T04:56:46.606Z,19.70
2023-01-31T05:01:09.375Z,15.55
2023-01-31T05:05:36.091Z,23.83
2023-01-31T05:09:58.526Z,14.65
2023-01-31T05:14:21.286Z,18.65
2023-01-31T05:18:43.565Z,20.17
2023-01-31T05:23:06.043Z,14.73
2023-01-31T05:27:27.980Z,20.30
2023-01-31T05:31:55.851Z,22.55
2023-01-31T05:36:17.865Z,17.77
2023-01-31T05:40:40.256Z,20.05
2023-01-31T05:45:01.924Z,20.77
2023-01-31T05:49:24.055Z,18.67
2023-01-31T05:53:47.389Z,17.58
2023-01-31T05:58:10.450Z,14.50
2023-01-31T06:02:33.536Z,23.13
2023-01-31T06:06:55.366Z,19.55
2023-01-31T06:11:18.813Z,19.80
2023-01-31T06:15:49.647Z,26.10
2023-01-31T06:20:12.153Z,18.70
2023-01-31T06:24:34.306Z,19.15
2023-01-31T06:28:56.721Z,16.30
2023-01-31T06:33:18.896Z,11.98
2023-01-31T06:37:41.304Z,16.88
2023-01-31T06:42:03.357Z,17.20
2023-01-31T06:46:25.421Z,16.75
2023-01-31T06:50:48.089Z,13.95
2023-01-31T06:55:10.845Z,20.60
2023-01-31T06:59:32.777Z,12.23
2023-01-31T07:03:54.999Z,13.00
2023-01-31T07:08:17.906Z,15.65
2023-01-31T07:12:40.985Z,20.45
2023-01-31T07:17:02.826Z,16.77
2023-01-31T07:21:26.551Z,15.95
2023-01-31T07:25:48.394Z,15.80
2023-01-31T07:30:11.686Z,11.63
2023-01-31T07:34:33.893Z,21.20
2023-01-31T07:39:00.185Z,14.18
2023-01-31T07:43:22.365Z,12.77
2023-01-31T07:47:44.426Z,15.45
2023-01-31T07:52:08.519Z,12.57
2023-01-31T07:56:30.823Z,15.90
2023-01-31T08:01:12.971Z,14.95
2023-01-31T08:05:35.067Z,10.18
2023-01-31T08:09:57.285Z,11.35
2023-01-31T08:14:23.824Z,16.58
2023-01-31T08:18:46.409Z,17.60
2023-01-31T08:23:08.657Z,14.13
2023-01-31T08:27:31.514Z,10.95
2023-01-31T08:31:53.980Z,16.10
2023-01-31T08:36:45.639Z,13.10
2023-01-31T08:41:07.985Z,13.95
2023-01-31T08:45:31.486Z,9.73
2023-01-31T08:49:53.708Z,14.23
2023-01-31T08:54:16.371Z,13.02
2023-01-31T08:58:42.192Z,10.40
2023-01-31T09:03:04.612Z,8.48
2023-01-31T09:07:27.026Z,10.85
2023-01-31T09:11:49.062Z,11.93
2023-01-31T09:16:12.946Z,16.38
2023-01-31T09:20:35.066Z,11.35
2023-01-31T09:24:57.009Z,11.60
2023-01-31T09:29:19.241Z,13.73
2023-01-31T09:33:41.685Z,7.60
2023-01-31T09:38:03.988Z,10.00
2023-01-31T09:42:42.868Z,7.97
2023-01-31T09:47:28.788Z,10.10
2023-01-31T09:51:58.728Z,14.00
2023-01-31T09:56:41.017Z,13.68
2023-01-31T10:01:16.577Z,15.40
2023-01-31T10:05:44.484Z,15.23
2023-01-31T10:10:39.881Z,12.40
2023-01-31T10:15:25.305Z,25.30
2023-01-31T10:20:06.126Z,15.07
2023-01-31T10:24:56.147Z,15.27
2023-01-31T10:29:29.680Z,13.38
2023-01-31T10:34:21.733Z,13.90
2023-01-31T10:38:56.025Z,9.25
2023-01-31T10:43:40.844Z,15.23
2023-01-31T10:48:26.793Z,14.27
2023-01-31T10:53:21.330Z,12.20
2023-01-31T10:57:43.483Z,7.40
2023-01-31T11:02:15.339Z,9.82
2023-01-31T11:06:37.107Z,13.65
2023-01-31T11:11:23.695Z,7.95
2023-01-31T11:15:48.342Z,13.10
2023-01-31T11:20:36.168Z,13.52
2023-01-31T11:25:02.049Z,10.43
2023-01-31T11:29:46.044Z,14.45
2023-01-31T11:34:25.833Z,10.15
2023-01-31T11:38:48.035Z,13.88
2023-01-31T11:43:26.166Z,10.30
2023-01-31T11:47:57.999Z,17.40
2023-01-31T11:52:27.998Z,11.20
2023-01-31T11:56:50.688Z,13.63
2023-01-31T12:01:23.072Z,12.35
2023-01-31T12:05:50.827Z,15.85
2023-01-31T12:10:42.730Z,22.48
2023-01-31T12:15:17.588Z,21.77
2023-01-31T12:19:54.526Z,19.88
2023-01-31T12:24:42.466Z,18.27
2023-01-31T12:29:57.338Z,19.02
2023-01-31T12:35:00.809Z,20.27
2023-01-31T12:40:23.911Z,20.13
2023-01-31T12:45:01.066Z,18.95
2023-01-31T12:49:47.888Z,17.35
2023-01-31T12:54:29.486Z,25.52
2023-01-31T12:59:48.566Z,26.27
2023-01-31T13:04:39.477Z,24.20
2023-01-31T13:09:10.895Z,22.13
2023-01-31T13:13:42.251Z,21.80
2023-01-31T13:18:06.635Z,22.27
2023-01-31T13:22:37.227Z,22.85
2023-01-31T13:27:39.299Z,22.60
2023-01-31T13:32:39.061Z,17.30
2023-01-31T13:37:21.298Z,21.67
2023-01-31T13:41:43.485Z,28.70
2023-01-31T13:46:10.226Z,23.15
2023-01-31T13:50:42.451Z,22.40
2023-01-31T13:55:34.802Z,22.85
2023-01-31T14:00:27.288Z,14.90
2023-01-31T14:04:49.750Z,17.83
2023-01-31T14:09:29.316Z,18.58
2023-01-31T14:14:10.175Z,18.30
2023-01-31T14:18:42.324Z,19.60
2023-01-31T14:23:32.273Z,14.30
2023-01-31T14:27:57.228Z,16.50
2023-01-31T14:33:03.147Z,15.68
2023-01-31T14:37:41.770Z,18.17
2023-01-31T14:42:15.396Z,17.83
2023-01-31T14:47:07.868Z,20.17
2023-01-31T14:52:12.935Z,13.70
2023-01-31T14:57:13.785Z,16.77
2023-01-31T15:01:38.468Z,20.25
2023-01-31T15:06:16.061Z,15.93
2023-01-31T15:11:02.750Z,17.42
2023-01-31T15:15:40.081Z,21.45
2023-01-31T15:20:23.897Z,15.70
2023-01-31T15:24:54.430Z,17.58
2023-01-31T15:29:25.391Z,20.05
2023-01-31T15:33:53.649Z,20.58
2023-01-31T15:38:43.550Z,19.77
2023-01-31T15:43:24.221Z,16.77
2023-01-31T15:48:20.788Z,15.68
2023-01-31T15:52:43.465Z,19.98
2023-01-31T15:57:12.257Z,16.67
2023-01-31T16:01:34.979Z,11.88
2023-01-31T16:05:59.573Z,14.35
2023-01-31T16:10:21.925Z,17.55
2023-01-31T16:14:48.248Z,17.20
2023-01-31T16:19:26.669Z,11.75
2023-01-31T16:24:13.433Z,19.60
2023-01-31T16:28:57.251Z,18.08
2023-01-31T16:33:23.990Z,12.63
2023-01-31T16:37:46.429Z,14.15
2023-01-31T16:42:26.108Z,13.98
2023-01-31T16:46:50.648Z,15.20
2023-01-31T16:51:30.488Z,13.70
2023-01-31T16:56:14.530Z,13.05
2023-01-31T17:00:36.845Z,11.48
2023-01-31T17:05:20.416Z,14.23
2023-01-31T17:09:42.770Z,10.95
2023-01-31T17:14:04.644Z,12.02
2023-01-31T17:18:26.835Z,9.10
2023-01-31T17:22:57.118Z,8.30
2023-01-31T17:27:25.211Z,13.50
2023-01-31T17:31:47.362Z,8.88
2023-01-31T17:36:10.345Z,7.95
2023-01-31T17:40:33.022Z,11.10
2023-01-31T17:44:55.329Z,10.73
2023-01-31T17:49:17.715Z,10.88
2023-01-31T17:53:49.472Z,10.85
2023-01-31T17:58:18.330Z,9.27
2023-01-31T18:02:42.631Z,10.80
2023-01-31T18:07:04.902Z,10.63
2023-01-31T18:11:27.061Z,8.30
2023-01-31T18:15:50.848Z,10.13
2023-01-31T18:20:12.832Z,9.00
2023-01-31T18:24:34.653Z,9.80
2023-01-31T18:28:57.758Z,9.75
2023-01-31T18:33:19.686Z,9.60
2023-01-31T18:37:41.509Z,8.63
2023-01-31T18:42:03.835Z,9.23
2023-01-31T18:46:25.766Z,7.05
2023-01-31T18:50:47.898Z,9.43
2023-01-31T18:55:11.140Z,6.78
2023-01-31T18:59:36.306Z,6.57
2023-01-31T19:03:58.868Z,9.75
2023-01-31T19:08:20.827Z,7.38
2023-01-31T19:12:42.984Z,7.25
2023-01-31T19:17:04.789Z,10.07
2023-01-31T19:21:30.743Z,7.50
2023-01-31T19:25:53.662Z,7.07
2023-01-31T19:30:15.672Z,7.53
2023-01-31T19:34:37.769Z,5.05
2023-01-31T19:39:01.829Z,8.23
2023-01-31T19:43:24.037Z,6.00
2023-01-31T19:47:46.170Z,5.88
2023-01-31T19:52:08.302Z,7.82
2023-01-31T19:56:31.877Z,8.68
2023-01-31T20:00:54.084Z,5.78
2023-01-31T20:05:16.389Z,6.05
2023-01-31T20:09:38.512Z,5.80
2023-01-31T20:14:00.609Z,4.50
2023-01-31T20:18:23.503Z,6.25
2023-01-31T20:22:46.176Z,4.53
2023-01-31T20:27:08.008Z,5.15
2023-01-31T20:31:30.331Z,7.65
2023-01-31T20:35:52.137Z,5.45
2023-01-31T20:40:14.286Z,4.97
2023-01-31T20:44:36.868Z,6.35
2023-01-31T20:48:58.566Z,5.07
2023-01-31T20:53:21.380Z,6.28
2023-01-31T20:57:43.665Z,6.97
2023-01-31T21:02:05.859Z,7.53
2023-01-31T21:06:27.880Z,6.82
2023-01-31T21:10:52.000Z,7.30
2023-01-31T21:15:13.888Z,9.50
2023-01-31T21:19:36.141Z,6.25
2023-01-31T21:23:58.184Z,6.78
2023-01-31T21:28:20.215Z,6.93
2023-01-31T21:32:42.327Z,6.80
2023-01-31T21:37:04.215Z,6.13
2023-01-31T21:41:44.854Z,7.32
2023-01-31T21:46:15.147Z,6.88
2023-01-31T21:50:36.987Z,6.90
2023-01-31T21:54:59.137Z,11.07
2023-01-31T21:59:21.556Z,11.15
2023-01-31T22:03:44.721Z,10.77
2023-01-31T22:08:06.761Z,6.95
2023-01-31T22:12:28.759Z,10.35
2023-01-31T22:16:51.993Z,7.65
2023-01-31T22:21:29.395Z,7.70
2023-01-31T22:25:51.152Z,12.43
2023-01-31T22:30:27.607Z,10.40
2023-01-31T22:34:49.816Z,11.18
2023-01-31T22:39:14.285Z,12.30
2023-01-31T22:43:38.897Z,10.15
2023-01-31T22:48:02.081Z,12.10
2023-01-31T22:52:30.056Z,11.15
2023-01-31T22:56:52.477Z,11.18
2023-01-31T23:01:22.112Z,10.32
2023-01-31T23:05:44.669Z,12.65
2023-01-31T23:10:07.455Z,10.68
2023-01-31T23:14:29.399Z,12.45
2023-01-31T23:18:51.077Z,19.17
2023-01-31T23:23:13.408Z,13.13
2023-01-31T23:27:35.417Z,10.82
2023-01-31T23:32:07.856Z,11.45
2023-01-31T23:36:40.580Z,9.25
2023-01-31T23:41:02.900Z,14.10
2023-01-31T23:45:25.021Z,13.77
2023-01-31T23:49:47.497Z,10.77
2023-01-31T23:54:10.655Z,14.32
2023-01-31T23:58:32.497Z,16.40
